Carlos, Texas
Current Conditions -  °F | °C
As of 8:53 PM on Sunday 21 Dec 2014 (Local Time) from KCLL Reporting Station
Overcast Overcast  
Wind Chill: 56°   Ceiling: 2100
Heat Index: 56°   Visibility: 10mi
Dew Point: 51°   Wind: 9mph
Humidity: 84%   Direction: 160°SSE
Pressure: 29.88"   Gusts: NA
Location:  30.5545°N, 96.0286°W
Report Text: KCLL 220253Z AUTO 16008KT 10SM BKN021 OVC028 13/11 A2988 RMK AO2 SLP117 T01330106 58009
Loading
Personal Weather Stations






























Interactive Weather Map New forecast layout! Learn more

10-Day Weather Forecast

Advertisements
Track Severe Weather on mobile